sensor_id;sensor_type;location;lat;lon;timestamp;temperature;humidity
1766;DHT22;880;52.452;8.656;2023-04-15T00:01:05;8.50;99.90
1766;DHT22;880;52.452;8.656;2023-04-15T00:03:32;8.60;99.90
1766;DHT22;880;52.452;8.656;2023-04-15T00:06:00;8.60;99.90
1766;DHT22;880;52.452;8.656;2023-04-15T00:08:27;8.70;99.90
1766;DHT22;880;52.452;8.656;2023-04-15T00:10:55;8.80;99.90
1766;DHT22;880;52.452;8.656;2023-04-15T00:13:24;8.80;99.90
1766;DHT22;880;52.452;8.656;2023-04-15T00:15:51;8.80;99.90
1766;DHT22;880;52.452;8.656;2023-04-15T00:18:18;8.70;99.90
1766;DHT22;880;52.452;8.656;2023-04-15T00:20:45;8.70;99.90
1766;DHT22;880;52.452;8.656;2023-04-15T00:23:12;8.60;99.90
1766;DHT22;880;52.452;8.656;2023-04-15T00:25:39;8.60;99.90
1766;DHT22;880;52.452;8.656;2023-04-15T00:28:06;8.60;99.90
1766;DHT22;880;52.452;8.656;2023-04-15T00:30:34;8.70;99.90
1766;DHT22;880;52.452;8.656;2023-04-15T00:33:01;8.70;99.90
1766;DHT22;880;52.452;8.656;2023-04-15T00:35:28;8.60;99.90
1766;DHT22;880;52.452;8.656;2023-04-15T00:37:58;8.60;99.90
1766;DHT22;880;52.452;8.656;2023-04-15T00:40:25;8.60;99.90
1766;DHT22;880;52.452;8.656;2023-04-15T00:42:53;8.60;99.90
1766;DHT22;880;52.452;8.656;2023-04-15T00:45:20;8.50;99.90
1766;DHT22;880;52.452;8.656;2023-04-15T00:47:48;8.50;99.90
1766;DHT22;880;52.452;8.656;2023-04-15T00:50:15;8.60;99.90
1766;DHT22;880;52.452;8.656;2023-04-15T00:52:42;8.60;99.90
1766;DHT22;880;52.452;8.656;2023-04-15T00:55:10;8.60;99.90
1766;DHT22;880;52.452;8.656;2023-04-15T00:57:38;8.60;99.90
1766;DHT22;880;52.452;8.656;2023-04-15T01:00:06;8.60;99.90
1766;DHT22;880;52.452;8.656;2023-04-15T01:02:37;8.50;99.90
1766;DHT22;880;52.452;8.656;2023-04-15T01:05:05;8.50;99.90
1766;DHT22;880;52.452;8.656;2023-04-15T01:07:33;8.50;99.90
1766;DHT22;880;52.452;8.656;2023-04-15T01:10:02;8.50;99.90
1766;DHT22;880;52.452;8.656;2023-04-15T01:12:31;8.50;99.90
1766;DHT22;880;52.452;8.656;2023-04-15T01:14:59;8.40;99.90
1766;DHT22;880;52.452;8.656;2023-04-15T01:17:26;8.30;99.90
1766;DHT22;880;52.452;8.656;2023-04-15T01:19:55;8.30;99.90
1766;DHT22;880;52.452;8.656;2023-04-15T01:22:26;8.20;99.90
1766;DHT22;880;52.452;8.656;2023-04-15T01:25:00;8.20;99.90
1766;DHT22;880;52.452;8.656;2023-04-15T01:27:29;8.20;99.90
1766;DHT22;880;52.452;8.656;2023-04-15T01:29:56;8.20;99.90
1766;DHT22;880;52.452;8.656;2023-04-15T01:32:24;8.10;99.90
1766;DHT22;880;52.452;8.656;2023-04-15T01:34:51;8.10;99.90
1766;DHT22;880;52.452;8.656;2023-04-15T01:37:22;8.00;99.90
1766;DHT22;880;52.452;8.656;2023-04-15T01:39:49;8.00;99.90
1766;DHT22;880;52.452;8.656;2023-04-15T01:42:17;8.00;99.90
1766;DHT22;880;52.452;8.656;2023-04-15T01:44:44;7.90;99.90
1766;DHT22;880;52.452;8.656;2023-04-15T01:47:10;7.90;99.90
1766;DHT22;880;52.452;8.656;2023-04-15T01:49:38;7.80;99.90
1766;DHT22;880;52.452;8.656;2023-04-15T01:52:05;7.70;99.90
1766;DHT22;880;52.452;8.656;2023-04-15T01:54:32;7.70;99.90
1766;DHT22;880;52.452;8.656;2023-04-15T01:56:59;7.80;99.90
1766;DHT22;880;52.452;8.656;2023-04-15T01:59:26;7.90;99.90
1766;DHT22;880;52.452;8.656;2023-04-15T02:01:54;7.90;99.90
1766;DHT22;880;52.452;8.656;2023-04-15T02:04:21;7.90;99.90
1766;DHT22;880;52.452;8.656;2023-04-15T02:06:49;7.90;99.90
1766;DHT22;880;52.452;8.656;2023-04-15T02:09:16;7.80;99.90
1766;DHT22;880;52.452;8.656;2023-04-15T02:11:44;7.70;99.90
1766;DHT22;880;52.452;8.656;2023-04-15T02:14:11;7.70;99.90
1766;DHT22;880;52.452;8.656;2023-04-15T02:16:38;7.70;99.90
1766;DHT22;880;52.452;8.656;2023-04-15T02:19:06;7.60;99.90
1766;DHT22;880;52.452;8.656;2023-04-15T02:21:36;7.60;99.90
1766;DHT22;880;52.452;8.656;2023-04-15T02:24:03;7.60;99.90
1766;DHT22;880;52.452;8.656;2023-04-15T02:26:30;7.60;99.90
1766;DHT22;880;52.452;8.656;2023-04-15T02:29:00;7.60;99.90
1766;DHT22;880;52.452;8.656;2023-04-15T02:31:27;7.60;99.90
1766;DHT22;880;52.452;8.656;2023-04-15T02:33:54;7.60;99.90
1766;DHT22;880;52.452;8.656;2023-04-15T02:36:21;7.60;99.90
1766;DHT22;880;52.452;8.656;2023-04-15T02:38:49;7.60;99.90
1766;DHT22;880;52.452;8.656;2023-04-15T02:41:16;7.60;99.90
1766;DHT22;880;52.452;8.656;2023-04-15T02:43:44;7.70;99.90
1766;DHT22;880;52.452;8.656;2023-04-15T02:46:12;7.70;99.90
1766;DHT22;880;52.452;8.656;2023-04-15T02:48:40;7.70;99.90
1766;DHT22;880;52.452;8.656;2023-04-15T02:51:15;7.70;99.90
1766;DHT22;880;52.452;8.656;2023-04-15T02:53:47;7.70;99.90
1766;DHT22;880;52.452;8.656;2023-04-15T02:56:15;7.60;99.90
1766;DHT22;880;52.452;8.656;2023-04-15T02:58:43;7.50;99.90
1766;DHT22;880;52.452;8.656;2023-04-15T03:01:12;7.50;99.90
1766;DHT22;880;52.452;8.656;2023-04-15T03:03:40;7.40;99.90
1766;DHT22;880;52.452;8.656;2023-04-15T03:06:07;7.40;99.90
1766;DHT22;880;52.452;8.656;2023-04-15T03:08:35;7.40;99.90
1766;DHT22;880;52.452;8.656;2023-04-15T03:11:03;7.40;99.90
1766;DHT22;880;52.452;8.656;2023-04-15T03:13:31;7.50;99.90
1766;DHT22;880;52.452;8.656;2023-04-15T03:16:03;7.40;99.90
1766;DHT22;880;52.452;8.656;2023-04-15T03:18:31;7.40;99.90
1766;DHT22;880;52.452;8.656;2023-04-15T03:21:01;7.40;99.90
1766;DHT22;880;52.452;8.656;2023-04-15T03:23:31;7.40;99.90
1766;DHT22;880;52.452;8.656;2023-04-15T03:26:01;7.30;99.90
1766;DHT22;880;52.452;8.656;2023-04-15T03:28:30;7.20;99.90
1766;DHT22;880;52.452;8.656;2023-04-15T03:30:58;7.20;99.90
1766;DHT22;880;52.452;8.656;2023-04-15T03:33:26;7.20;99.90
1766;DHT22;880;52.452;8.656;2023-04-15T03:35:53;7.20;99.90
1766;DHT22;880;52.452;8.656;2023-04-15T03:38:20;7.20;99.90
1766;DHT22;880;52.452;8.656;2023-04-15T03:40:47;7.20;99.90
1766;DHT22;880;52.452;8.656;2023-04-15T03:43:14;7.20;99.90
1766;DHT22;880;52.452;8.656;2023-04-15T03:45:41;7.20;99.90
1766;DHT22;880;52.452;8.656;2023-04-15T03:48:08;7.20;99.90
1766;DHT22;880;52.452;8.656;2023-04-15T03:50:43;7.20;99.90
1766;DHT22;880;52.452;8.656;2023-04-15T03:53:10;7.20;99.90
1766;DHT22;880;52.452;8.656;2023-04-15T03:55:37;7.20;99.90
1766;DHT22;880;52.452;8.656;2023-04-15T03:58:04;7.20;99.90
1766;DHT22;880;52.452;8.656;2023-04-15T04:00:32;7.10;99.90
1766;DHT22;880;52.452;8.656;2023-04-15T04:02:59;7.10;99.90
1766;DHT22;880;52.452;8.656;2023-04-15T04:05:26;7.10;99.90
1766;DHT22;880;52.452;8.656;2023-04-15T04:07:53;7.20;99.90
1766;DHT22;880;52.452;8.656;2023-04-15T04:10:20;7.20;99.90
1766;DHT22;880;52.452;8.656;2023-04-15T04:12:47;7.00;99.90
1766;DHT22;880;52.452;8.656;2023-04-15T04:15:14;6.90;99.90
1766;DHT22;880;52.452;8.656;2023-04-15T04:17:41;6.90;99.90
1766;DHT22;880;52.452;8.656;2023-04-15T04:20:08;6.80;99.90
1766;DHT22;880;52.452;8.656;2023-04-15T04:22:39;6.80;99.90
1766;DHT22;880;52.452;8.656;2023-04-15T04:25:07;6.90;99.90
1766;DHT22;880;52.452;8.656;2023-04-15T04:27:35;7.00;99.90
1766;DHT22;880;52.452;8.656;2023-04-15T04:30:03;7.00;99.90
1766;DHT22;880;52.452;8.656;2023-04-15T04:32:31;7.10;99.90
1766;DHT22;880;52.452;8.656;2023-04-15T04:34:59;7.00;99.90
1766;DHT22;880;52.452;8.656;2023-04-15T04:37:25;7.00;99.90
1766;DHT22;880;52.452;8.656;2023-04-15T04:39:52;6.90;99.90
1766;DHT22;880;52.452;8.656;2023-04-15T04:42:19;6.80;99.90
1766;DHT22;880;52.452;8.656;2023-04-15T04:44:46;6.80;99.90
1766;DHT22;880;52.452;8.656;2023-04-15T04:47:13;6.90;99.90
1766;DHT22;880;52.452;8.656;2023-04-15T04:49:40;6.90;99.90
1766;DHT22;880;52.452;8.656;2023-04-15T04:52:07;6.80;99.90
1766;DHT22;880;52.452;8.656;2023-04-15T04:54:34;6.80;99.90
1766;DHT22;880;52.452;8.656;2023-04-15T04:57:01;6.90;99.90
1766;DHT22;880;52.452;8.656;2023-04-15T04:59:28;6.90;99.90
1766;DHT22;880;52.452;8.656;2023-04-15T05:01:55;6.80;99.90
1766;DHT22;880;52.452;8.656;2023-04-15T05:04:22;6.80;99.90
1766;DHT22;880;52.452;8.656;2023-04-15T05:06:49;6.80;99.90
1766;DHT22;880;52.452;8.656;2023-04-15T05:09:16;6.80;99.90
1766;DHT22;880;52.452;8.656;2023-04-15T05:11:43;6.80;99.90
1766;DHT22;880;52.452;8.656;2023-04-15T05:14:10;6.80;99.90
1766;DHT22;880;52.452;8.656;2023-04-15T05:16:37;6.90;99.90
1766;DHT22;880;52.452;8.656;2023-04-15T05:19:04;7.00;99.90
1766;DHT22;880;52.452;8.656;2023-04-15T05:21:31;7.00;99.90
1766;DHT22;880;52.452;8.656;2023-04-15T05:23:58;7.00;99.90
1766;DHT22;880;52.452;8.656;2023-04-15T05:26:25;7.00;99.90
1766;DHT22;880;52.452;8.656;2023-04-15T05:28:53;7.00;99.90
1766;DHT22;880;52.452;8.656;2023-04-15T05:31:20;7.00;99.90
1766;DHT22;880;52.452;8.656;2023-04-15T05:33:47;7.10;99.90
1766;DHT22;880;52.452;8.656;2023-04-15T05:36:14;7.20;99.90
1766;DHT22;880;52.452;8.656;2023-04-15T05:38:41;7.20;99.90
1766;DHT22;880;52.452;8.656;2023-04-15T05:41:08;7.20;99.90
1766;DHT22;880;52.452;8.656;2023-04-15T05:43:35;7.20;99.90
1766;DHT22;880;52.452;8.656;2023-04-15T05:46:02;7.20;99.90
1766;DHT22;880;52.452;8.656;2023-04-15T05:48:29;7.20;99.90
1766;DHT22;880;52.452;8.656;2023-04-15T05:50:56;7.10;99.90
1766;DHT22;880;52.452;8.656;2023-04-15T05:53:23;7.20;99.90
1766;DHT22;880;52.452;8.656;2023-04-15T05:55:50;7.30;99.90
1766;DHT22;880;52.452;8.656;2023-04-15T05:58:17;7.40;99.90
1766;DHT22;880;52.452;8.656;2023-04-15T06:00:44;7.40;99.90
1766;DHT22;880;52.452;8.656;2023-04-15T06:03:11;7.30;99.90
1766;DHT22;880;52.452;8.656;2023-04-15T06:05:39;7.30;99.90
1766;DHT22;880;52.452;8.656;2023-04-15T06:08:06;7.30;99.90
1766;DHT22;880;52.452;8.656;2023-04-15T06:10:34;7.30;99.90
1766;DHT22;880;52.452;8.656;2023-04-15T06:13:02;7.30;99.90
1766;DHT22;880;52.452;8.656;2023-04-15T06:15:30;7.40;99.90
1766;DHT22;880;52.452;8.656;2023-04-15T06:17:57;7.40;99.90
1766;DHT22;880;52.452;8.656;2023-04-15T06:20:24;7.50;99.90
1766;DHT22;880;52.452;8.656;2023-04-15T06:22:51;7.50;99.90
1766;DHT22;880;52.452;8.656;2023-04-15T06:25:18;7.50;99.90
1766;DHT22;880;52.452;8.656;2023-04-15T06:27:45;7.40;99.90
1766;DHT22;880;52.452;8.656;2023-04-15T06:30:12;7.30;99.90
1766;DHT22;880;52.452;8.656;2023-04-15T06:32:39;7.30;99.90
1766;DHT22;880;52.452;8.656;2023-04-15T06:35:07;7.30;99.90
1766;DHT22;880;52.452;8.656;2023-04-15T06:37:34;7.40;99.90
1766;DHT22;880;52.452;8.656;2023-04-15T06:40:01;7.40;99.90
1766;DHT22;880;52.452;8.656;2023-04-15T06:42:28;7.40;99.90
1766;DHT22;880;52.452;8.656;2023-04-15T06:44:56;7.50;99.90
1766;DHT22;880;52.452;8.656;2023-04-15T06:47:23;7.60;99.90
1766;DHT22;880;52.452;8.656;2023-04-15T06:49:50;7.60;99.90
1766;DHT22;880;52.452;8.656;2023-04-15T06:52:17;7.60;99.90
1766;DHT22;880;52.452;8.656;2023-04-15T06:54:45;7.60;99.90
1766;DHT22;880;52.452;8.656;2023-04-15T06:57:11;7.70;99.90
1766;DHT22;880;52.452;8.656;2023-04-15T06:59:38;7.60;99.90
1766;DHT22;880;52.452;8.656;2023-04-15T07:02:07;7.70;99.90
1766;DHT22;880;52.452;8.656;2023-04-15T07:04:38;7.70;99.90
1766;DHT22;880;52.452;8.656;2023-04-15T07:07:05;7.80;99.90
1766;DHT22;880;52.452;8.656;2023-04-15T07:09:33;7.80;99.90
1766;DHT22;880;52.452;8.656;2023-04-15T07:12:00;7.80;99.90
1766;DHT22;880;52.452;8.656;2023-04-15T07:14:27;7.80;99.90
1766;DHT22;880;52.452;8.656;2023-04-15T07:16:55;7.80;99.90
1766;DHT22;880;52.452;8.656;2023-04-15T07:19:22;7.70;99.90
1766;DHT22;880;52.452;8.656;2023-04-15T07:21:49;7.80;99.90
1766;DHT22;880;52.452;8.656;2023-04-15T07:24:16;7.90;99.90
1766;DHT22;880;52.452;8.656;2023-04-15T07:26:45;7.90;99.90
1766;DHT22;880;52.452;8.656;2023-04-15T07:29:12;8.00;99.90
1766;DHT22;880;52.452;8.656;2023-04-15T07:31:39;8.00;99.90
1766;DHT22;880;52.452;8.656;2023-04-15T07:34:07;7.90;99.90
1766;DHT22;880;52.452;8.656;2023-04-15T07:36:34;7.90;99.90
1766;DHT22;880;52.452;8.656;2023-04-15T07:39:02;7.90;99.90
1766;DHT22;880;52.452;8.656;2023-04-15T07:41:30;7.90;99.90
1766;DHT22;880;52.452;8.656;2023-04-15T07:43:57;7.90;99.90
1766;DHT22;880;52.452;8.656;2023-04-15T07:46:24;7.80;99.90
1766;DHT22;880;52.452;8.656;2023-04-15T07:48:53;7.70;99.90
1766;DHT22;880;52.452;8.656;2023-04-15T07:51:20;7.70;99.90
1766;DHT22;880;52.452;8.656;2023-04-15T07:53:47;7.80;99.90
1766;DHT22;880;52.452;8.656;2023-04-15T07:56:15;7.90;99.90
1766;DHT22;880;52.452;8.656;2023-04-15T07:58:42;7.90;99.90
1766;DHT22;880;52.452;8.656;2023-04-15T08:01:09;7.90;99.90
1766;DHT22;880;52.452;8.656;2023-04-15T08:03:36;7.90;99.90
1766;DHT22;880;52.452;8.656;2023-04-15T08:06:03;8.00;99.90
1766;DHT22;880;52.452;8.656;2023-04-15T08:08:30;8.00;99.90
1766;DHT22;880;52.452;8.656;2023-04-15T08:10:57;8.00;99.90
1766;DHT22;880;52.452;8.656;2023-04-15T08:13:25;8.00;99.90
1766;DHT22;880;52.452;8.656;2023-04-15T08:16:17;8.00;99.90
1766;DHT22;880;52.452;8.656;2023-04-15T08:18:47;8.20;99.90
1766;DHT22;880;52.452;8.656;2023-04-15T08:21:15;8.60;99.90
1766;DHT22;880;52.452;8.656;2023-04-15T08:23:44;8.70;99.90
1766;DHT22;880;52.452;8.656;2023-04-15T08:26:12;8.90;99.90
1766;DHT22;880;52.452;8.656;2023-04-15T08:28:40;9.10;99.90
1766;DHT22;880;52.452;8.656;2023-04-15T08:31:08;9.20;99.90
1766;DHT22;880;52.452;8.656;2023-04-15T08:33:35;9.10;99.90
1766;DHT22;880;52.452;8.656;2023-04-15T08:36:02;9.20;99.90
1766;DHT22;880;52.452;8.656;2023-04-15T08:38:29;9.20;99.90
1766;DHT22;880;52.452;8.656;2023-04-15T08:40:59;9.10;99.90
1766;DHT22;880;52.452;8.656;2023-04-15T08:43:33;9.00;99.90
1766;DHT22;880;52.452;8.656;2023-04-15T08:46:01;9.00;99.90
1766;DHT22;880;52.452;8.656;2023-04-15T08:48:32;9.10;99.90
1766;DHT22;880;52.452;8.656;2023-04-15T08:51:01;9.20;99.90
1766;DHT22;880;52.452;8.656;2023-04-15T08:53:28;9.40;99.90
1766;DHT22;880;52.452;8.656;2023-04-15T08:55:56;9.20;99.90
1766;DHT22;880;52.452;8.656;2023-04-15T08:58:27;9.10;99.90
1766;DHT22;880;52.452;8.656;2023-04-15T09:00:55;9.10;99.90
1766;DHT22;880;52.452;8.656;2023-04-15T09:03:22;9.00;99.90
1766;DHT22;880;52.452;8.656;2023-04-15T09:05:50;8.90;99.90
1766;DHT22;880;52.452;8.656;2023-04-15T09:08:18;8.90;99.90
1766;DHT22;880;52.452;8.656;2023-04-15T09:10:45;9.10;99.90
1766;DHT22;880;52.452;8.656;2023-04-15T09:13:13;9.30;99.90
1766;DHT22;880;52.452;8.656;2023-04-15T09:15:40;9.40;99.90
1766;DHT22;880;52.452;8.656;2023-04-15T09:18:07;9.70;99.90
1766;DHT22;880;52.452;8.656;2023-04-15T09:20:43;9.80;99.90
1766;DHT22;880;52.452;8.656;2023-04-15T09:23:12;10.00;99.90
1766;DHT22;880;52.452;8.656;2023-04-15T09:25:40;9.80;99.90
1766;DHT22;880;52.452;8.656;2023-04-15T09:28:08;9.70;99.90
1766;DHT22;880;52.452;8.656;2023-04-15T09:30:35;9.60;99.90
1766;DHT22;880;52.452;8.656;2023-04-15T09:33:03;9.50;99.90
1766;DHT22;880;52.452;8.656;2023-04-15T09:35:34;9.60;99.90
1766;DHT22;880;52.452;8.656;2023-04-15T09:38:04;9.70;99.90
1766;DHT22;880;52.452;8.656;2023-04-15T09:40:38;9.50;99.90
1766;DHT22;880;52.452;8.656;2023-04-15T09:43:08;9.50;99.90
1766;DHT22;880;52.452;8.656;2023-04-15T09:45:36;9.60;99.90
1766;DHT22;880;52.452;8.656;2023-04-15T09:48:22;9.70;99.90
1766;DHT22;880;52.452;8.656;2023-04-15T09:50:52;9.80;99.90
1766;DHT22;880;52.452;8.656;2023-04-15T09:53:22;10.00;99.90
1766;DHT22;880;52.452;8.656;2023-04-15T09:55:57;9.90;99.90
1766;DHT22;880;52.452;8.656;2023-04-15T09:58:26;9.80;99.90
1766;DHT22;880;52.452;8.656;2023-04-15T10:00:56;9.90;99.90
1766;DHT22;880;52.452;8.656;2023-04-15T10:03:27;9.80;99.90
1766;DHT22;880;52.452;8.656;2023-04-15T10:05:57;9.70;99.90
1766;DHT22;880;52.452;8.656;2023-04-15T10:08:30;9.60;99.90
1766;DHT22;880;52.452;8.656;2023-04-15T10:11:02;9.70;99.90
1766;DHT22;880;52.452;8.656;2023-04-15T10:13:31;9.70;99.90
1766;DHT22;880;52.452;8.656;2023-04-15T10:16:11;9.60;99.90
1766;DHT22;880;52.452;8.656;2023-04-15T10:18:43;9.70;99.90
1766;DHT22;880;52.452;8.656;2023-04-15T10:21:11;9.70;99.90
1766;DHT22;880;52.452;8.656;2023-04-15T10:23:40;9.70;99.90
1766;DHT22;880;52.452;8.656;2023-04-15T10:26:07;9.60;99.90
1766;DHT22;880;52.452;8.656;2023-04-15T10:28:38;9.70;99.90
1766;DHT22;880;52.452;8.656;2023-04-15T10:31:05;9.70;99.90
1766;DHT22;880;52.452;8.656;2023-04-15T10:33:34;9.70;99.90
1766;DHT22;880;52.452;8.656;2023-04-15T10:36:01;9.80;99.90
1766;DHT22;880;52.452;8.656;2023-04-15T10:38:33;9.90;99.90
1766;DHT22;880;52.452;8.656;2023-04-15T10:41:24;9.90;99.90
1766;DHT22;880;52.452;8.656;2023-04-15T10:44:01;10.00;99.90
1766;DHT22;880;52.452;8.656;2023-04-15T10:46:36;10.20;99.90
1766;DHT22;880;52.452;8.656;2023-04-15T10:49:13;10.20;99.90
1766;DHT22;880;52.452;8.656;2023-04-15T10:51:45;10.20;99.90
1766;DHT22;880;52.452;8.656;2023-04-15T10:57:05;10.00;99.90
1766;DHT22;880;52.452;8.656;2023-04-15T10:59:36;9.90;99.90
1766;DHT22;880;52.452;8.656;2023-04-15T11:02:05;9.80;99.90
1766;DHT22;880;52.452;8.656;2023-04-15T11:07:40;9.80;99.90
1766;DHT22;880;52.452;8.656;2023-04-15T11:12:45;9.80;99.90
1766;DHT22;880;52.452;8.656;2023-04-15T11:15:35;9.80;99.90
1766;DHT22;880;52.452;8.656;2023-04-15T11:18:16;9.90;99.90
1766;DHT22;880;52.452;8.656;2023-04-15T11:21:04;9.80;99.90
1766;DHT22;880;52.452;8.656;2023-04-15T11:23:39;9.90;99.90
1766;DHT22;880;52.452;8.656;2023-04-15T11:26:09;9.80;99.90
1766;DHT22;880;52.452;8.656;2023-04-15T11:28:39;9.70;99.90
1766;DHT22;880;52.452;8.656;2023-04-15T11:31:17;9.70;99.90
1766;DHT22;880;52.452;8.656;2023-04-15T11:33:53;9.80;99.90
1766;DHT22;880;52.452;8.656;2023-04-15T11:36:29;9.80;99.90
1766;DHT22;880;52.452;8.656;2023-04-15T11:38:58;9.90;99.90
1766;DHT22;880;52.452;8.656;2023-04-15T11:41:25;9.90;99.90
1766;DHT22;880;52.452;8.656;2023-04-15T11:43:52;9.80;99.90
1766;DHT22;880;52.452;8.656;2023-04-15T11:46:20;9.70;99.90
1766;DHT22;880;52.452;8.656;2023-04-15T11:48:48;9.70;99.90
1766;DHT22;880;52.452;8.656;2023-04-15T11:51:15;9.90;99.90
1766;DHT22;880;52.452;8.656;2023-04-15T11:53:44;9.90;99.90
1766;DHT22;880;52.452;8.656;2023-04-15T11:56:23;9.90;99.90
1766;DHT22;880;52.452;8.656;2023-04-15T11:58:52;9.80;99.90
1766;DHT22;880;52.452;8.656;2023-04-15T12:01:36;9.80;99.90
1766;DHT22;880;52.452;8.656;2023-04-15T12:04:15;9.90;99.90
1766;DHT22;880;52.452;8.656;2023-04-15T12:06:50;9.90;99.90
1766;DHT22;880;52.452;8.656;2023-04-15T12:09:17;9.90;99.90
1766;DHT22;880;52.452;8.656;2023-04-15T12:14:29;9.80;99.90
1766;DHT22;880;52.452;8.656;2023-04-15T12:16:59;9.80;99.90
1766;DHT22;880;52.452;8.656;2023-04-15T12:19:30;9.70;99.90
1766;DHT22;880;52.452;8.656;2023-04-15T12:22:08;9.70;99.90
1766;DHT22;880;52.452;8.656;2023-04-15T12:24:39;9.80;99.90
1766;DHT22;880;52.452;8.656;2023-04-15T12:27:08;10.00;99.90
1766;DHT22;880;52.452;8.656;2023-04-15T12:29:38;10.00;99.90
1766;DHT22;880;52.452;8.656;2023-04-15T12:32:11;9.90;99.90
1766;DHT22;880;52.452;8.656;2023-04-15T12:34:47;9.90;99.90
1766;DHT22;880;52.452;8.656;2023-04-15T12:37:16;9.80;99.90
1766;DHT22;880;52.452;8.656;2023-04-15T12:39:45;10.00;99.90
1766;DHT22;880;52.452;8.656;2023-04-15T12:42:14;10.10;99.90
1766;DHT22;880;52.452;8.656;2023-04-15T12:44:43;10.10;99.90
1766;DHT22;880;52.452;8.656;2023-04-15T12:47:10;10.10;99.90
1766;DHT22;880;52.452;8.656;2023-04-15T12:49:38;10.10;99.90
1766;DHT22;880;52.452;8.656;2023-04-15T12:52:05;10.10;99.90
1766;DHT22;880;52.452;8.656;2023-04-15T12:54:32;10.10;99.90
1766;DHT22;880;52.452;8.656;2023-04-15T12:57:00;10.10;99.90
1766;DHT22;880;52.452;8.656;2023-04-15T12:59:32;10.10;99.90
1766;DHT22;880;52.452;8.656;2023-04-15T13:01:59;10.10;99.90
1766;DHT22;880;52.452;8.656;2023-04-15T13:04:26;10.10;99.90
1766;DHT22;880;52.452;8.656;2023-04-15T13:06:56;10.20;99.90
1766;DHT22;880;52.452;8.656;2023-04-15T13:09:23;10.30;99.90
1766;DHT22;880;52.452;8.656;2023-04-15T13:11:50;10.20;99.90
1766;DHT22;880;52.452;8.656;2023-04-15T13:14:18;10.20;99.90
1766;DHT22;880;52.452;8.656;2023-04-15T13:16:45;10.20;99.90
1766;DHT22;880;52.452;8.656;2023-04-15T13:19:12;10.20;99.90
1766;DHT22;880;52.452;8.656;2023-04-15T13:21:40;10.10;99.90
1766;DHT22;880;52.452;8.656;2023-04-15T13:24:07;10.10;99.90
1766;DHT22;880;52.452;8.656;2023-04-15T13:26:35;10.30;99.90
1766;DHT22;880;52.452;8.656;2023-04-15T13:29:02;10.30;99.90
1766;DHT22;880;52.452;8.656;2023-04-15T13:31:30;10.30;99.90
1766;DHT22;880;52.452;8.656;2023-04-15T13:33:57;10.30;99.90
1766;DHT22;880;52.452;8.656;2023-04-15T13:36:23;10.20;99.90
1766;DHT22;880;52.452;8.656;2023-04-15T13:38:51;10.30;99.90
1766;DHT22;880;52.452;8.656;2023-04-15T13:41:18;10.30;99.90
1766;DHT22;880;52.452;8.656;2023-04-15T13:43:46;10.30;99.90
1766;DHT22;880;52.452;8.656;2023-04-15T13:46:13;10.40;99.90
1766;DHT22;880;52.452;8.656;2023-04-15T13:48:40;10.40;99.90
1766;DHT22;880;52.452;8.656;2023-04-15T13:51:08;10.50;99.90
1766;DHT22;880;52.452;8.656;2023-04-15T13:53:34;10.50;99.90
1766;DHT22;880;52.452;8.656;2023-04-15T13:56:08;10.50;99.90
1766;DHT22;880;52.452;8.656;2023-04-15T13:58:36;10.50;99.90
1766;DHT22;880;52.452;8.656;2023-04-15T14:01:04;10.40;99.90
1766;DHT22;880;52.452;8.656;2023-04-15T14:03:36;10.30;99.90
1766;DHT22;880;52.452;8.656;2023-04-15T14:06:04;10.30;99.90
1766;DHT22;880;52.452;8.656;2023-04-15T14:08:31;10.20;99.90
1766;DHT22;880;52.452;8.656;2023-04-15T14:10:59;10.20;99.90
1766;DHT22;880;52.452;8.656;2023-04-15T14:13:26;10.20;99.90
1766;DHT22;880;52.452;8.656;2023-04-15T14:15:53;10.20;99.90
1766;DHT22;880;52.452;8.656;2023-04-15T14:18:20;10.30;99.90
1766;DHT22;880;52.452;8.656;2023-04-15T14:20:47;10.30;99.90
1766;DHT22;880;52.452;8.656;2023-04-15T14:23:14;10.20;99.90
1766;DHT22;880;52.452;8.656;2023-04-15T14:25:41;10.20;99.90
1766;DHT22;880;52.452;8.656;2023-04-15T14:28:08;10.20;99.90
1766;DHT22;880;52.452;8.656;2023-04-15T14:30:35;10.20;99.90
1766;DHT22;880;52.452;8.656;2023-04-15T14:33:02;10.30;99.90
1766;DHT22;880;52.452;8.656;2023-04-15T14:35:29;10.60;99.90
1766;DHT22;880;52.452;8.656;2023-04-15T14:37:56;10.60;99.90
1766;DHT22;880;52.452;8.656;2023-04-15T14:40:24;10.60;99.90
1766;DHT22;880;52.452;8.656;2023-04-15T14:42:54;10.60;99.90
1766;DHT22;880;52.452;8.656;2023-04-15T14:45:21;10.50;99.90
1766;DHT22;880;52.452;8.656;2023-04-15T14:47:49;10.50;99.90
1766;DHT22;880;52.452;8.656;2023-04-15T14:50:16;10.50;99.90
1766;DHT22;880;52.452;8.656;2023-04-15T14:52:43;10.50;99.90
1766;DHT22;880;52.452;8.656;2023-04-15T14:55:11;10.40;99.90
1766;DHT22;880;52.452;8.656;2023-04-15T14:57:41;10.40;99.90
1766;DHT22;880;52.452;8.656;2023-04-15T15:00:09;10.40;99.90
1766;DHT22;880;52.452;8.656;2023-04-15T15:02:42;10.40;99.90
1766;DHT22;880;52.452;8.656;2023-04-15T15:05:10;10.40;99.90
1766;DHT22;880;52.452;8.656;2023-04-15T15:07:38;10.30;99.90
1766;DHT22;880;52.452;8.656;2023-04-15T15:10:06;10.40;99.90
1766;DHT22;880;52.452;8.656;2023-04-15T15:12:33;10.50;99.90
1766;DHT22;880;52.452;8.656;2023-04-15T15:15:02;10.40;99.90
1766;DHT22;880;52.452;8.656;2023-04-15T15:17:41;10.50;99.90
1766;DHT22;880;52.452;8.656;2023-04-15T15:20:09;10.60;99.90
1766;DHT22;880;52.452;8.656;2023-04-15T15:22:36;10.80;99.90
1766;DHT22;880;52.452;8.656;2023-04-15T15:25:03;11.00;99.90
1766;DHT22;880;52.452;8.656;2023-04-15T15:27:30;11.10;99.90
1766;DHT22;880;52.452;8.656;2023-04-15T15:29:58;11.10;99.90
1766;DHT22;880;52.452;8.656;2023-04-15T15:32:25;11.00;99.90
1766;DHT22;880;52.452;8.656;2023-04-15T15:34:52;10.90;99.90
1766;DHT22;880;52.452;8.656;2023-04-15T15:37:19;10.80;99.90
1766;DHT22;880;52.452;8.656;2023-04-15T15:39:45;10.90;99.90
1766;DHT22;880;52.452;8.656;2023-04-15T15:42:13;10.90;99.90
1766;DHT22;880;52.452;8.656;2023-04-15T15:44:40;11.00;99.90
1766;DHT22;880;52.452;8.656;2023-04-15T15:47:07;11.10;99.90
1766;DHT22;880;52.452;8.656;2023-04-15T15:49:34;11.20;99.90
1766;DHT22;880;52.452;8.656;2023-04-15T15:52:01;11.10;99.90
1766;DHT22;880;52.452;8.656;2023-04-15T15:54:28;11.30;99.90
1766;DHT22;880;52.452;8.656;2023-04-15T15:56:55;11.50;99.90
1766;DHT22;880;52.452;8.656;2023-04-15T15:59:23;11.70;99.90
1766;DHT22;880;52.452;8.656;2023-04-15T16:01:51;11.60;99.90
1766;DHT22;880;52.452;8.656;2023-04-15T16:04:18;11.70;99.90
1766;DHT22;880;52.452;8.656;2023-04-15T16:06:45;11.90;99.90
1766;DHT22;880;52.452;8.656;2023-04-15T16:09:12;12.10;99.90
1766;DHT22;880;52.452;8.656;2023-04-15T16:11:39;12.10;99.90
1766;DHT22;880;52.452;8.656;2023-04-15T16:14:07;12.20;99.90
1766;DHT22;880;52.452;8.656;2023-04-15T16:16:34;12.20;99.90
1766;DHT22;880;52.452;8.656;2023-04-15T16:19:01;12.20;99.90
1766;DHT22;880;52.452;8.656;2023-04-15T16:21:28;12.10;99.90
1766;DHT22;880;52.452;8.656;2023-04-15T16:23:56;12.10;99.90
1766;DHT22;880;52.452;8.656;2023-04-15T16:26:23;12.00;99.90
1766;DHT22;880;52.452;8.656;2023-04-15T16:28:50;11.80;99.90
1766;DHT22;880;52.452;8.656;2023-04-15T16:31:17;11.70;99.90
1766;DHT22;880;52.452;8.656;2023-04-15T16:33:44;11.80;99.90
1766;DHT22;880;52.452;8.656;2023-04-15T16:36:11;11.90;99.90
1766;DHT22;880;52.452;8.656;2023-04-15T16:38:37;11.90;99.90
1766;DHT22;880;52.452;8.656;2023-04-15T16:41:04;11.90;99.90
1766;DHT22;880;52.452;8.656;2023-04-15T16:43:31;12.00;99.90
1766;DHT22;880;52.452;8.656;2023-04-15T16:45:58;12.00;99.90
1766;DHT22;880;52.452;8.656;2023-04-15T16:48:25;12.00;99.90